Time;durP1;ratioP1;P1;durP2;ratioP2;P2;SDS_P1;SDS_P2;PMS_P1;PMS_P2;Temp;Humidity;BMP_temperature;BMP_pressure;BME280_temperature;BME280_humidity;BME280_pressure;Samples;Min_cycle;Max_cycle;Signal;HPM_P1;HPM_P2
2024/04/06 00:00:31;;;;;;;29.67;24.67;;;12.60;99.90;;;;;;4854472;29;20032;-78
2024/04/06 00:02:57;;;;;;;27.50;24.42;;;12.60;99.90;;;;;;4863612;29;20033;-78
2024/04/06 00:05:26;;;;;;;27.20;24.23;;;12.70;99.90;;;;;;4863315;29;20031;-78
2024/04/06 00:07:53;;;;;;;26.23;23.73;;;12.70;99.90;;;;;;4863229;29;20030;-77
2024/04/06 00:10:19;;;;;;;25.35;22.63;;;12.80;99.90;;;;;;4863372;29;20046;-77
2024/04/06 00:12:45;;;;;;;25.52;22.33;;;12.80;99.90;;;;;;4863363;29;20032;-78
2024/04/06 00:15:12;;;;;;;25.45;22.63;;;12.60;99.90;;;;;;4863331;29;20025;-77
2024/04/06 00:17:38;;;;;;;26.65;22.90;;;12.60;99.90;;;;;;4862687;29;20034;-77
2024/04/06 00:20:08;;;;;;;25.50;22.77;;;12.60;99.90;;;;;;4862869;29;20028;-78
2024/04/06 00:22:34;;;;;;;25.42;22.90;;;12.60;99.90;;;;;;4863294;29;20101;-78
2024/04/06 00:25:00;;;;;;;29.13;23.40;;;12.60;99.90;;;;;;4863118;29;20514;-78
2024/04/06 00:27:28;;;;;;;29.02;22.75;;;12.70;99.90;;;;;;4863095;29;20399;-78
2024/04/06 00:29:55;;;;;;;28.05;23.30;;;12.60;99.90;;;;;;4863022;29;20480;-78
2024/04/06 00:32:21;;;;;;;26.20;23.20;;;12.60;99.90;;;;;;4863086;29;20041;-77
2024/04/06 00:34:48;;;;;;;25.77;22.35;;;12.60;99.90;;;;;;4863040;29;20029;-78
2024/04/06 00:37:14;;;;;;;30.85;22.83;;;12.60;99.90;;;;;;4862831;29;20033;-77
2024/04/06 00:39:41;;;;;;;28.25;23.25;;;12.60;99.90;;;;;;4861699;29;20041;-78
2024/04/06 00:42:11;;;;;;;25.50;22.80;;;12.60;99.90;;;;;;4862900;29;20026;-78
2024/04/06 00:44:37;;;;;;;28.38;23.48;;;12.50;99.90;;;;;;4862526;29;20036;-77
2024/04/06 00:47:04;;;;;;;25.75;23.00;;;12.50;99.90;;;;;;4862633;29;20037;-77
2024/04/06 00:49:31;;;;;;;25.38;22.73;;;12.40;99.90;;;;;;4862724;29;20505;-78
2024/04/06 00:51:58;;;;;;;25.95;22.90;;;12.40;99.90;;;;;;4862745;29;20029;-77
2024/04/06 00:54:25;;;;;;;26.73;23.52;;;12.40;99.90;;;;;;4861359;29;20457;-78
2024/04/06 00:56:53;;;;;;;24.80;22.27;;;12.30;99.90;;;;;;4862633;29;20033;-77
2024/04/06 00:59:20;;;;;;;27.33;22.85;;;12.30;99.90;;;;;;4861348;29;20045;-78
2024/04/06 01:01:47;;;;;;;25.88;23.08;;;12.30;99.90;;;;;;4862538;29;20097;-78
2024/04/06 01:04:13;;;;;;;28.00;22.55;;;12.30;99.90;;;;;;4862189;29;20026;-77
2024/04/06 01:06:40;;;;;;;25.08;22.58;;;12.30;99.90;;;;;;4862343;29;20041;-78
2024/04/06 01:09:07;;;;;;;25.02;22.40;;;12.30;99.90;;;;;;4862472;29;20038;-78
2024/04/06 01:11:36;;;;;;;25.63;22.70;;;12.20;99.90;;;;;;4862400;29;20025;-77
2024/04/06 01:14:05;;;;;;;26.23;22.38;;;12.20;99.90;;;;;;4845826;29;20034;-78
2024/04/06 01:16:32;;;;;;;25.52;22.77;;;12.20;99.90;;;;;;4862252;29;20033;-77
2024/04/06 01:18:58;;;;;;;30.15;22.88;;;12.10;99.90;;;;;;4859219;29;20026;-77
2024/04/06 01:21:26;;;;;;;29.17;22.73;;;12.10;99.90;;;;;;4846998;29;20061;-78
2024/04/06 01:23:53;;;;;;;24.52;22.00;;;12.00;99.90;;;;;;4842529;29;20392;-77
2024/04/06 01:26:21;;;;;;;24.73;21.98;;;12.00;99.90;;;;;;4843622;29;20129;-78
2024/04/06 01:28:48;;;;;;;28.83;21.52;;;12.00;99.90;;;;;;4843527;29;20078;-77
2024/04/06 01:31:15;;;;;;;26.08;21.58;;;11.90;99.90;;;;;;4856942;29;20033;-77
2024/04/06 01:33:42;;;;;;;26.45;22.38;;;11.90;99.90;;;;;;4862092;29;20041;-78
2024/04/06 01:36:08;;;;;;;27.23;22.70;;;11.90;99.90;;;;;;4862015;29;20044;-77
2024/04/06 01:38:34;;;;;;;29.77;23.48;;;11.90;99.90;;;;;;4861787;29;20029;-78
2024/04/06 01:41:01;;;;;;;26.90;22.67;;;11.80;99.90;;;;;;4861736;29;20073;-77
2024/04/06 01:43:27;;;;;;;24.60;21.73;;;11.80;99.90;;;;;;4861718;29;20034;-78
2024/04/06 01:45:54;;;;;;;32.00;23.08;;;11.70;99.90;;;;;;4845123;29;20041;-78
2024/04/06 01:48:20;;;;;;;27.17;22.40;;;11.70;99.90;;;;;;4845071;29;20025;-78
2024/04/06 01:50:46;;;;;;;26.10;22.52;;;11.70;99.90;;;;;;4862668;29;20029;-78
2024/04/06 01:53:13;;;;;;;26.42;22.42;;;11.80;99.90;;;;;;4879937;29;20021;-78
2024/04/06 01:55:39;;;;;;;27.80;22.58;;;11.70;99.90;;;;;;4879047;29;20084;-78
2024/04/06 01:58:06;;;;;;;32.60;22.52;;;11.80;99.90;;;;;;4879981;29;20062;-77
2024/04/06 02:00:32;;;;;;;28.08;21.38;;;11.80;99.90;;;;;;4855365;29;20037;-78
2024/04/06 02:03:00;;;;;;;25.27;21.50;;;11.80;99.90;;;;;;4879571;29;20033;-78
2024/04/06 02:05:27;;;;;;;24.90;21.50;;;11.80;99.90;;;;;;4879938;29;20620;-78
2024/04/06 02:07:54;;;;;;;24.55;21.67;;;11.80;99.90;;;;;;4863307;29;20399;-79
2024/04/06 02:10:20;;;;;;;27.73;20.80;;;11.80;99.90;;;;;;4873726;29;20030;-77
2024/04/06 02:12:47;;;;;;;31.10;21.77;;;11.80;99.90;;;;;;4861249;29;20040;-77
2024/04/06 02:15:13;;;;;;;25.20;21.08;;;11.80;99.90;;;;;;4860751;29;20025;-77
2024/04/06 02:17:40;;;;;;;23.77;21.23;;;11.80;99.90;;;;;;4844073;29;20053;-76
2024/04/06 02:20:07;;;;;;;23.05;20.65;;;11.70;99.90;;;;;;4860912;29;20542;-76
2024/04/06 02:22:33;;;;;;;23.65;21.10;;;11.80;99.90;;;;;;4875000;29;20068;-77
2024/04/06 02:25:00;;;;;;;25.48;21.55;;;11.70;99.90;;;;;;4862907;29;20036;-77
2024/04/06 02:27:26;;;;;;;28.67;21.85;;;11.70;99.90;;;;;;4879152;29;20115;-76
2024/04/06 02:29:52;;;;;;;24.77;21.25;;;11.70;99.90;;;;;;4877178;29;20033;-77
2024/04/06 02:32:19;;;;;;;28.95;22.48;;;11.70;99.90;;;;;;4862013;29;20029;-77
2024/04/06 02:34:45;;;;;;;23.45;21.00;;;11.60;99.90;;;;;;4844376;29;20487;-76
2024/04/06 02:37:11;;;;;;;24.35;21.63;;;11.60;99.90;;;;;;4851872;29;20524;-77
2024/04/06 02:39:38;;;;;;;24.95;21.38;;;11.60;99.90;;;;;;4844354;29;20516;-77
2024/04/06 02:42:04;;;;;;;29.40;21.38;;;11.70;99.90;;;;;;4860779;29;20030;-77
2024/04/06 02:44:31;;;;;;;23.00;20.42;;;11.70;99.90;;;;;;4860697;29;20548;-76
2024/04/06 02:46:57;;;;;;;24.15;20.30;;;11.70;99.90;;;;;;4859564;29;20600;-77
2024/04/06 02:49:23;;;;;;;23.20;20.45;;;11.70;99.90;;;;;;4860588;29;20064;-77
2024/04/06 02:51:50;;;;;;;23.58;19.92;;;11.70;99.90;;;;;;4861828;29;20117;-77
2024/04/06 02:54:16;;;;;;;22.35;20.02;;;11.70;99.90;;;;;;4860461;29;20559;-77
2024/04/06 02:56:42;;;;;;;22.27;19.95;;;11.60;99.90;;;;;;4860721;29;20045;-76
2024/04/06 02:59:08;;;;;;;23.33;21.00;;;11.60;99.90;;;;;;4844055;29;20093;-77
2024/04/06 03:01:35;;;;;;;22.98;20.25;;;11.60;99.90;;;;;;4871205;29;20040;-77
2024/04/06 03:04:01;;;;;;;22.13;19.83;;;11.60;99.90;;;;;;4875110;29;20033;-75
2024/04/06 03:06:27;;;;;;;22.17;19.83;;;11.60;99.90;;;;;;4860441;29;20037;-75
2024/04/06 03:08:54;;;;;;;22.35;19.92;;;11.60;99.90;;;;;;4860565;29;20037;-75
2024/04/06 03:11:20;;;;;;;27.40;19.75;;;11.60;99.90;;;;;;4860929;29;20395;-75
2024/04/06 03:13:47;;;;;;;21.42;19.00;;;11.60;99.90;;;;;;4860553;29;20026;-75
2024/04/06 03:16:14;;;;;;;21.92;19.88;;;11.50;99.90;;;;;;4860543;29;20029;-75
2024/04/06 03:18:40;;;;;;;21.30;19.40;;;11.50;99.90;;;;;;4860363;29;20030;-75
2024/04/06 03:21:08;;;;;;;21.45;19.40;;;11.60;99.90;;;;;;4859157;29;20124;-76
2024/04/06 03:23:37;;;;;;;21.02;19.10;;;11.60;99.90;;;;;;4860275;29;20057;-76
2024/04/06 03:26:04;;;;;;;21.23;18.58;;;11.50;99.90;;;;;;4860384;29;20037;-76
2024/04/06 03:28:31;;;;;;;20.63;18.67;;;11.50;99.90;;;;;;4862782;29;20030;-76
2024/04/06 03:30:59;;;;;;;21.23;19.33;;;11.50;99.90;;;;;;4847580;29;20052;-76
2024/04/06 03:33:25;;;;;;;21.45;18.85;;;11.50;99.90;;;;;;4864038;29;20036;-75
2024/04/06 03:35:53;;;;;;;25.75;18.45;;;11.50;99.90;;;;;;4864047;29;20483;-76
2024/04/06 03:38:19;;;;;;;20.52;18.45;;;11.50;99.90;;;;;;4864010;29;20051;-75
2024/04/06 03:40:46;;;;;;;20.90;18.73;;;11.50;99.90;;;;;;4863794;29;20491;-74
2024/04/06 03:43:12;;;;;;;20.38;18.42;;;11.50;99.90;;;;;;4863870;29;20030;-74
2024/04/06 03:45:39;;;;;;;19.48;17.67;;;11.50;99.90;;;;;;4863781;29;20037;-75
2024/04/06 03:48:06;;;;;;;20.17;18.27;;;11.60;99.90;;;;;;4863942;29;20084;-74
2024/04/06 03:50:32;;;;;;;21.60;18.52;;;11.60;99.90;;;;;;4865085;29;20033;-74
2024/04/06 03:53:00;;;;;;;20.85;18.55;;;11.60;99.90;;;;;;4882057;29;20029;-75
2024/04/06 03:55:26;;;;;;;19.23;17.30;;;11.50;99.90;;;;;;4882296;29;20022;-75
2024/04/06 03:57:53;;;;;;;20.10;18.00;;;11.50;99.90;;;;;;4882285;29;20069;-74
2024/04/06 04:00:20;;;;;;;24.02;18.17;;;11.60;99.90;;;;;;4877572;29;20033;-76
2024/04/06 04:02:47;;;;;;;18.88;17.00;;;11.50;99.90;;;;;;4880856;29;20499;-75
2024/04/06 04:05:13;;;;;;;24.25;17.58;;;11.50;99.90;;;;;;4882067;29;20100;-75
2024/04/06 04:07:40;;;;;;;23.67;17.35;;;11.40;99.90;;;;;;4882017;29;20147;-75
2024/04/06 04:10:07;;;;;;;18.13;16.42;;;11.50;99.90;;;;;;4879232;29;20030;-77
2024/04/06 04:12:34;;;;;;;18.60;16.80;;;11.40;99.90;;;;;;4867193;29;20057;-75
2024/04/06 04:15:10;;;;;;;18.73;16.42;;;11.30;99.90;;;;;;4863374;29;20029;-75
2024/04/06 04:17:36;;;;;;;18.70;16.83;;;11.20;99.90;;;;;;4863069;29;20025;-76
2024/04/06 04:20:04;;;;;;;17.55;16.05;;;11.30;99.90;;;;;;4862977;29;20494;-75
2024/04/06 04:22:31;;;;;;;20.25;16.13;;;11.30;99.90;;;;;;4846800;29;20038;-76
2024/04/06 04:24:58;;;;;;;17.55;15.82;;;11.30;99.90;;;;;;4863205;29;20535;-76
2024/04/06 04:27:32;;;;;;;17.38;15.70;;;11.20;99.90;;;;;;4863061;29;20174;-76
2024/04/06 04:29:59;;;;;;;19.90;15.70;;;11.20;99.90;;;;;;4863009;29;20388;-76
2024/04/06 04:32:26;;;;;;;17.98;15.80;;;11.20;99.90;;;;;;4863139;29;20036;-76
2024/04/06 04:34:52;;;;;;;18.00;16.20;;;11.20;99.90;;;;;;4862942;29;20030;-76
2024/04/06 04:37:19;;;;;;;22.52;16.60;;;11.20;99.90;;;;;;4862922;29;20029;-76
2024/04/06 04:39:45;;;;;;;20.60;16.25;;;11.40;99.90;;;;;;4861135;29;20021;-76
2024/04/06 04:42:12;;;;;;;16.85;15.30;;;11.60;99.90;;;;;;4867966;29;20033;-76
2024/04/06 04:44:38;;;;;;;17.23;15.63;;;11.70;99.90;;;;;;4881382;29;20041;-76
2024/04/06 04:47:04;;;;;;;17.40;15.70;;;11.90;99.90;;;;;;4881275;29;20037;-76
2024/04/06 04:49:30;;;;;;;16.67;15.05;;;12.00;99.90;;;;;;4881553;29;20400;-76
2024/04/06 04:52:00;;;;;;;22.10;15.57;;;12.00;99.90;;;;;;4874076;29;20029;-76
2024/04/06 04:54:26;;;;;;;18.27;16.00;;;12.00;99.90;;;;;;4881179;29;20021;-77
2024/04/06 04:56:52;;;;;;;20.15;16.23;;;12.20;99.90;;;;;;4881129;29;20032;-76
2024/04/06 04:59:19;;;;;;;20.33;14.90;;;12.30;99.90;;;;;;4881110;29;20036;-76
2024/04/06 05:01:46;;;;;;;17.70;15.95;;;12.50;99.90;;;;;;4873500;29;20033;-76
2024/04/06 05:04:13;;;;;;;18.52;15.93;;;12.70;99.90;;;;;;4881108;29;20132;-76
2024/04/06 05:06:40;;;;;;;17.90;15.80;;;13.00;99.90;;;;;;4881044;29;20037;-76
2024/04/06 05:09:10;;;;;;;16.98;15.05;;;14.10;99.90;;;;;;4880994;29;20021;-76
2024/04/06 05:11:36;;;;;;;19.23;16.30;;;15.40;99.90;;;;;;4873198;29;20064;-76
2024/04/06 05:14:03;;;;;;;18.88;16.98;;;16.10;99.90;;;;;;4864022;29;20062;-77
2024/04/06 05:16:30;;;;;;;19.90;18.40;;;16.70;99.90;;;;;;4862323;29;20543;-77
2024/04/06 05:18:57;;;;;;;21.30;19.42;;;17.30;99.90;;;;;;4862272;29;20033;-77
2024/04/06 05:21:24;;;;;;;23.63;21.45;;;17.80;99.90;;;;;;4865697;29;20049;-78
2024/04/06 05:23:51;;;;;;;27.98;25.77;;;18.90;99.90;;;;;;4880804;29;20443;-77
2024/04/06 05:26:18;;;;;;;28.40;25.90;;;19.70;99.90;;;;;;4863906;29;20071;-77
2024/04/06 05:28:44;;;;;;;29.50;26.85;;;20.10;99.90;;;;;;4880654;29;20021;-78
2024/04/06 05:31:11;;;;;;;30.58;27.83;;;20.40;99.90;;;;;;4855989;29;20548;-78
2024/04/06 05:33:38;;;;;;;30.05;27.63;;;20.10;99.90;;;;;;4880589;29;20028;-77
2024/04/06 05:36:06;;;;;;;31.90;29.35;;;19.70;99.90;;;;;;4862372;29;20699;-78
2024/04/06 05:38:33;;;;;;;34.08;31.17;;;19.50;99.90;;;;;;4861607;29;20033;-78
2024/04/06 05:41:00;;;;;;;32.33;30.00;;;19.60;99.90;;;;;;4861643;29;20029;-77
2024/04/06 05:43:26;;;;;;;33.03;30.25;;;20.10;99.90;;;;;;4861855;29;20080;-77
2024/04/06 05:46:01;;;;;;;33.55;30.60;;;20.70;99.90;;;;;;4862076;29;20034;-78
2024/04/06 05:48:28;;;;;;;32.78;29.95;;;21.30;99.90;;;;;;4861631;29;20030;-77
2024/04/06 05:50:57;;;;;;;33.15;30.23;;;21.50;99.90;;;;;;4860583;29;20029;-79
2024/04/06 05:53:24;;;;;;;33.17;30.15;;;21.70;99.90;;;;;;4861595;29;20029;-79
2024/04/06 05:55:51;;;;;;;32.80;29.85;;;22.50;99.90;;;;;;4862146;29;20448;-78
2024/04/06 05:58:18;;;;;;;33.22;30.38;;;22.60;99.90;;;;;;4861544;29;20053;-80
2024/04/06 06:00:47;;;;;;;33.60;30.65;;;22.60;99.90;;;;;;4859589;29;20037;-79
2024/04/06 06:03:13;;;;;;;33.92;30.67;;;22.90;99.90;;;;;;4861294;29;20029;-82
2024/04/06 06:05:40;;;;;;;34.67;31.02;;;23.50;99.90;;;;;;4844816;29;20037;-80
2024/04/06 06:08:07;;;;;;;34.00;30.83;;;24.10;99.90;;;;;;4861156;29;20086;-78
2024/04/06 06:10:33;;;;;;;33.35;30.65;;;24.10;99.90;;;;;;4860057;29;20086;-79
2024/04/06 06:12:59;;;;;;;34.05;30.42;;;23.50;99.90;;;;;;4861266;29;20089;-76
2024/04/06 06:15:26;;;;;;;33.10;30.40;;;23.20;99.90;;;;;;4855395;29;20433;-78
2024/04/06 06:17:52;;;;;;;33.88;31.10;;;23.20;99.90;;;;;;4842750;29;20034;-78
2024/04/06 06:20:19;;;;;;;32.92;30.23;;;22.80;99.90;;;;;;4854692;29;20053;-78
2024/04/06 06:22:45;;;;;;;33.58;30.52;;;23.00;99.90;;;;;;4861034;29;20037;-78
2024/04/06 06:25:12;;;;;;;33.38;30.73;;;22.70;99.90;;;;;;4860872;29;20041;-78
2024/04/06 06:27:38;;;;;;;34.13;30.83;;;22.40;99.90;;;;;;4860964;29;20086;-78
2024/04/06 06:30:07;;;;;;;33.30;30.48;;;22.00;99.90;;;;;;4860885;29;20472;-78
2024/04/06 06:32:34;;;;;;;32.53;29.77;;;22.10;99.90;;;;;;4860892;29;20033;-78
2024/04/06 06:35:01;;;;;;;32.67;30.00;;;22.10;99.90;;;;;;4860886;29;20029;-79
2024/04/06 06:37:28;;;;;;;32.35;29.85;;;22.10;99.90;;;;;;4860920;29;20022;-78
2024/04/06 06:39:55;;;;;;;32.05;29.75;;;22.40;99.90;;;;;;4828736;29;20033;-78
2024/04/06 06:42:21;;;;;;;33.15;30.00;;;22.80;99.90;;;;;;4859670;29;20066;-78
2024/04/06 06:44:47;;;;;;;32.85;30.27;;;23.10;99.90;;;;;;4860825;29;20029;-78
2024/04/06 06:47:18;;;;;;;32.72;30.48;;;23.30;99.90;;;;;;4860566;29;20045;-78
2024/04/06 06:49:49;;;;;;;33.05;30.65;;;23.10;99.90;;;;;;4860844;29;20480;-78
2024/04/06 06:52:18;;;;;;;33.75;31.10;;;22.90;99.90;;;;;;4860672;29;20041;-78
2024/04/06 06:54:44;;;;;;;32.50;30.00;;;22.60;99.90;;;;;;4844149;29;20053;-78
2024/04/06 06:57:11;;;;;;;33.78;31.02;;;22.30;99.90;;;;;;4860682;29;20387;-78
2024/04/06 06:59:38;;;;;;;32.88;30.65;;;22.20;99.90;;;;;;4863780;29;20116;-77
2024/04/06 07:02:08;;;;;;;34.17;31.20;;;22.40;99.90;;;;;;4860089;29;20032;-77
2024/04/06 07:04:36;;;;;;;34.20;31.67;;;22.60;99.90;;;;;;4859427;29;20405;-77
2024/04/06 07:07:05;;;;;;;33.22;30.95;;;23.30;99.90;;;;;;4859945;29;20090;-77
2024/04/06 07:09:35;;;;;;;33.47;30.77;;;23.10;99.90;;;;;;4860604;29;20030;-77
2024/04/06 07:12:02;;;;;;;33.33;30.90;;;23.10;99.90;;;;;;4860347;29;20104;-77
2024/04/06 07:14:29;;;;;;;34.10;31.10;;;22.60;99.90;;;;;;4860584;29;20057;-77
2024/04/06 07:16:59;;;;;;;34.28;31.30;;;22.60;99.90;;;;;;4860370;29;20032;-77
2024/04/06 07:19:30;;;;;;;32.58;30.27;;;22.70;99.90;;;;;;4859335;29;20132;-77
2024/04/06 07:22:02;;;;;;;33.65;31.45;;;22.90;99.90;;;;;;4859971;29;20053;-77
2024/04/06 07:24:29;;;;;;;33.25;30.88;;;22.90;99.90;;;;;;4860365;29;20112;-78
2024/04/06 07:26:56;;;;;;;33.42;31.17;;;22.80;99.90;;;;;;4860422;29;20480;-77
2024/04/06 07:29:23;;;;;;;33.75;30.92;;;22.70;99.90;;;;;;4860269;29;20030;-78
2024/04/06 07:31:49;;;;;;;34.63;31.85;;;22.60;99.90;;;;;;4860397;29;20026;-77
2024/04/06 07:34:18;;;;;;;32.92;30.73;;;22.90;99.90;;;;;;4860348;29;20532;-77
2024/04/06 07:36:45;;;;;;;33.83;31.15;;;22.80;99.90;;;;;;4860291;29;20434;-77
2024/04/06 07:39:12;;;;;;;33.00;30.90;;;22.60;99.90;;;;;;4860317;29;20036;-77
2024/04/06 07:41:38;;;;;;;34.00;31.58;;;22.50;99.90;;;;;;4860057;29;20138;-77
2024/04/06 07:44:05;;;;;;;33.08;31.08;;;22.30;99.90;;;;;;4877820;29;20029;-77
2024/04/06 07:46:33;;;;;;;33.00;30.65;;;22.50;99.90;;;;;;4878567;29;20153;-77
2024/04/06 07:49:03;;;;;;;32.88;30.17;;;23.00;99.90;;;;;;4878772;29;20073;-78
2024/04/06 07:51:30;;;;;;;33.15;30.88;;;23.20;99.90;;;;;;4878113;29;20460;-77
2024/04/06 07:53:56;;;;;;;34.90;32.53;;;22.70;99.90;;;;;;4878535;29;20093;-77
2024/04/06 07:56:23;;;;;;;35.38;32.90;;;22.80;99.90;;;;;;4878936;29;20551;-77
2024/04/06 07:58:50;;;;;;;35.72;33.33;;;22.90;99.90;;;;;;4878799;29;20029;-77
2024/04/06 08:01:17;;;;;;;34.40;32.10;;;22.70;99.90;;;;;;4877792;29;20037;-77
2024/04/06 08:03:45;;;;;;;35.13;32.45;;;22.80;99.90;;;;;;4878440;29;20034;-77
2024/04/06 08:06:12;;;;;;;34.92;32.20;;;23.00;99.90;;;;;;4878375;29;20487;-77
2024/04/06 08:08:39;;;;;;;35.83;33.25;;;22.80;99.90;;;;;;4878584;29;20150;-77
2024/04/06 08:11:05;;;;;;;35.72;33.33;;;22.70;99.90;;;;;;4877742;29;20032;-77
2024/04/06 08:13:32;;;;;;;35.97;33.70;;;23.20;99.90;;;;;;4875284;29;20365;-77
2024/04/06 08:15:59;;;;;;;35.42;32.75;;;23.50;99.90;;;;;;4862853;29;20029;-77
2024/04/06 08:18:27;;;;;;;35.78;33.15;;;23.20;99.90;;;;;;4863286;29;20535;-77
2024/04/06 08:20:53;;;;;;;35.17;32.35;;;23.20;99.90;;;;;;4862808;29;20053;-77
2024/04/06 08:23:20;;;;;;;35.13;32.63;;;23.10;99.90;;;;;;4863229;29;20026;-77
2024/04/06 08:25:50;;;;;;;34.92;32.50;;;23.10;99.90;;;;;;4863134;29;20121;-77
2024/04/06 08:28:17;;;;;;;34.65;32.30;;;23.40;99.90;;;;;;4870296;29;20097;-78
2024/04/06 08:30:47;;;;;;;34.60;31.70;;;23.50;99.90;;;;;;4877879;29;20028;-77
2024/04/06 08:33:13;;;;;;;35.33;32.53;;;23.30;99.90;;;;;;4877122;29;20033;-77
2024/04/06 08:35:41;;;;;;;34.05;31.48;;;23.60;99.90;;;;;;4881503;29;20104;-77
2024/04/06 08:38:09;;;;;;;34.40;32.20;;;23.60;99.90;;;;;;4875951;29;20026;-77
2024/04/06 08:40:46;;;;;;;34.13;32.05;;;23.30;99.90;;;;;;4862712;29;20034;-77
2024/04/06 08:43:13;;;;;;;34.15;31.80;;;23.40;99.90;;;;;;4862550;29;20048;-77
2024/04/06 08:45:42;;;;;;;32.75;30.63;;;23.40;99.90;;;;;;4862910;29;20021;-78
2024/04/06 08:48:10;;;;;;;33.83;31.27;;;23.30;99.90;;;;;;4862926;29;20029;-77
2024/04/06 08:50:37;;;;;;;33.35;30.92;;;23.50;99.90;;;;;;4864351;29;20026;-77
2024/04/06 08:53:08;;;;;;;33.03;30.55;;;23.40;99.90;;;;;;4881111;29;20037;-77
2024/04/06 08:55:35;;;;;;;32.67;30.48;;;23.50;99.90;;;;;;4881248;29;20032;-77
2024/04/06 08:58:01;;;;;;;34.22;31.80;;;23.50;99.90;;;;;;4877094;29;20026;-77
2024/04/06 09:00:29;;;;;;;35.42;32.90;;;23.00;99.90;;;;;;4872234;29;20032;-77
2024/04/06 09:02:56;;;;;;;35.13;32.83;;;23.20;99.90;;;;;;4863491;29;20089;-77
2024/04/06 09:05:23;;;;;;;36.13;33.30;;;23.30;99.90;;;;;;4862457;29;20052;-77
2024/04/06 09:07:52;;;;;;;36.08;33.58;;;23.20;99.90;;;;;;4862470;29;20048;-77
2024/04/06 09:10:24;;;;;;;35.42;32.80;;;23.10;99.90;;;;;;4869896;29;20025;-78
2024/04/06 09:12:51;;;;;;;35.40;32.67;;;23.10;99.90;;;;;;4851780;29;20484;-77
2024/04/06 09:15:21;;;;;;;35.08;32.85;;;23.10;99.90;;;;;;4862224;29;20044;-77
2024/04/06 09:17:48;;;;;;;35.25;32.45;;;23.20;99.90;;;;;;4862348;29;20033;-78
2024/04/06 09:20:17;;;;;;;33.97;31.70;;;23.20;99.90;;;;;;4866703;29;20160;-78
2024/04/06 09:22:45;;;;;;;35.72;33.20;;;23.10;99.90;;;;;;4862418;29;20036;-77
2024/04/06 09:25:13;;;;;;;35.50;32.97;;;23.00;99.90;;;;;;4871965;29;20029;-77
2024/04/06 09:27:46;;;;;;;35.00;32.30;;;22.70;99.90;;;;;;4863870;29;20072;-77
2024/04/06 09:30:13;;;;;;;34.10;31.42;;;22.60;99.90;;;;;;4880553;29;20100;-77
2024/04/06 09:32:41;;;;;;;34.35;31.77;;;22.40;99.90;;;;;;4880559;29;20029;-78
2024/04/06 09:35:09;;;;;;;34.00;31.80;;;22.30;99.90;;;;;;4875891;29;20499;-77
2024/04/06 09:37:41;;;;;;;34.65;32.35;;;22.30;99.90;;;;;;4880515;29;20025;-77
2024/04/06 09:40:08;;;;;;;34.42;32.13;;;22.50;99.90;;;;;;4880502;29;20597;-77
2024/04/06 09:42:39;;;;;;;34.88;32.33;;;22.40;99.90;;;;;;4863371;29;20034;-77
2024/04/06 09:45:07;;;;;;;35.17;32.85;;;22.40;99.90;;;;;;4861853;29;20033;-77
2024/04/06 09:47:35;;;;;;;35.60;33.38;;;22.50;99.90;;;;;;4861680;29;20145;-77
2024/04/06 09:50:02;;;;;;;35.28;32.88;;;22.70;99.90;;;;;;4861772;29;20030;-77
2024/04/06 09:52:30;;;;;;;35.65;33.15;;;22.70;99.90;;;;;;4861629;29;20040;-77
2024/04/06 09:54:58;;;;;;;33.83;31.42;;;22.80;99.90;;;;;;4861525;29;20073;-77
2024/04/06 09:57:26;;;;;;;34.10;31.77;;;22.50;99.90;;;;;;4861563;29;20062;-77
2024/04/06 10:00:04;;;;;;;34.35;31.83;;;22.50;99.90;;;;;;4861760;29;20089;-78
2024/04/06 10:02:33;;;;;;;34.67;32.15;;;22.50;99.90;;;;;;4861695;29;20041;-77
2024/04/06 10:05:06;;;;;;;33.13;30.80;;;22.30;99.90;;;;;;4861999;29;20357;-77
2024/04/06 10:07:36;;;;;;;34.22;31.85;;;22.40;99.90;;;;;;4861638;29;20034;-77
2024/04/06 10:10:05;;;;;;;34.35;31.95;;;22.60;99.90;;;;;;4861683;29;20041;-77
2024/04/06 10:12:52;;;;;;;34.40;31.83;;;22.60;99.90;;;;;;4867737;29;20495;-77
2024/04/06 10:15:21;;;;;;;35.47;33.00;;;22.70;99.90;;;;;;4849618;29;20041;-78
2024/04/06 10:17:52;;;;;;;35.30;32.55;;;22.50;99.90;;;;;;4861733;29;20507;-77
2024/04/06 10:20:28;;;;;;;35.10;32.35;;;22.40;99.90;;;;;;4861452;29;20488;-77
2024/04/06 10:23:01;;;;;;;34.60;32.03;;;22.70;99.90;;;;;;4860574;29;20029;-77
2024/04/06 10:25:38;;;;;;;34.35;31.98;;;22.80;99.90;;;;;;4880438;29;20033;-77
2024/04/06 10:28:10;;;;;;;35.10;32.20;;;22.70;99.90;;;;;;4879962;29;20055;-78
2024/04/06 10:30:39;;;;;;;34.60;32.17;;;22.70;99.90;;;;;;4878738;29;20036;-78
2024/04/06 10:33:07;;;;;;;35.53;33.13;;;22.80;99.90;;;;;;4869324;29;20104;-78
2024/04/06 10:35:35;;;;;;;34.42;31.80;;;22.80;99.90;;;;;;4879695;29;20024;-77
2024/04/06 10:38:02;;;;;;;34.42;31.92;;;22.90;99.90;;;;;;4879347;29;20709;-77
2024/04/06 10:40:34;;;;;;;35.15;32.75;;;22.60;99.90;;;;;;4864859;29;20658;-79
2024/04/06 10:43:04;;;;;;;34.75;32.30;;;22.30;99.90;;;;;;4841854;29;20097;-78
2024/04/06 10:45:31;;;;;;;34.85;32.45;;;22.20;99.90;;;;;;4842654;29;20401;-78
2024/04/06 10:47:58;;;;;;;34.45;32.08;;;22.30;99.90;;;;;;4842747;29;20370;-79
2024/04/06 10:50:25;;;;;;;34.70;32.22;;;22.40;99.90;;;;;;4869993;29;20112;-80
2024/04/06 10:52:52;;;;;;;35.03;32.25;;;22.40;99.90;;;;;;4861595;29;21470;-81
2024/04/06 10:55:21;;;;;;;34.42;31.95;;;22.40;99.90;;;;;;4860060;29;20017;-80
2024/04/06 10:57:48;;;;;;;34.70;32.20;;;22.50;99.90;;;;;;4878468;29;20399;-81
2024/04/06 11:00:19;;;;;;;34.08;31.77;;;22.50;99.90;;;;;;4865666;29;20128;-81
2024/04/06 11:02:47;;;;;;;33.38;31.10;;;22.70;99.90;;;;;;4843554;29;20102;-82
2024/04/06 11:05:14;;;;;;;35.30;32.63;;;22.60;99.90;;;;;;4848883;29;20023;-81
2024/04/06 11:07:42;;;;;;;35.33;32.92;;;22.70;99.90;;;;;;4859076;29;20511;-81
2024/04/06 11:10:10;;;;;;;34.72;31.90;;;22.60;99.90;;;;;;4859884;29;20071;-82
2024/04/06 11:12:38;;;;;;;33.50;31.30;;;22.40;99.90;;;;;;4841195;29;20034;-80
2024/04/06 11:15:17;;;;;;;34.35;32.00;;;22.40;99.90;;;;;;4860814;29;20042;-81
2024/04/06 11:17:45;;;;;;;34.03;31.80;;;22.20;99.90;;;;;;4860215;29;20202;-81
2024/04/06 11:20:12;;;;;;;34.13;31.70;;;22.40;99.90;;;;;;4847470;29;20045;-82
2024/04/06 11:22:39;;;;;;;34.15;31.63;;;22.30;99.90;;;;;;4829957;29;20041;-80
2024/04/06 11:25:07;;;;;;;34.53;32.15;;;22.30;99.90;;;;;;4858306;29;20030;-80
2024/04/06 11:27:33;;;;;;;34.63;32.17;;;22.40;99.90;;;;;;4859264;29;20041;-80
2024/04/06 11:30:00;;;;;;;34.97;32.38;;;22.50;99.90;;;;;;4860823;29;20030;-80
2024/04/06 11:32:27;;;;;;;34.20;31.60;;;22.70;99.90;;;;;;4860614;29;20029;-80
2024/04/06 11:34:53;;;;;;;34.40;31.90;;;22.60;99.90;;;;;;4844252;29;20049;-85
2024/04/06 11:37:22;;;;;;;34.58;32.13;;;22.60;99.90;;;;;;4870318;29;20107;-80
2024/04/06 11:39:50;;;;;;;34.35;31.83;;;22.60;99.90;;;;;;4862230;29;20022;-80
2024/04/06 11:42:18;;;;;;;35.08;32.67;;;22.50;99.90;;;;;;4828558;29;20040;-80
2024/04/06 11:44:45;;;;;;;34.65;32.45;;;22.50;99.90;;;;;;4860232;29;20033;-81
2024/04/06 11:47:12;;;;;;;34.08;31.50;;;22.40;99.90;;;;;;4828556;29;20041;-81
2024/04/06 11:49:39;;;;;;;33.80;31.50;;;22.30;99.90;;;;;;4845052;29;20021;-78
2024/04/06 11:52:07;;;;;;;34.22;31.92;;;22.30;99.90;;;;;;4862412;29;20059;-77
2024/04/06 11:54:34;;;;;;;34.60;31.85;;;22.20;99.90;;;;;;4844691;29;20105;-77
2024/04/06 11:57:01;;;;;;;33.85;31.27;;;22.20;99.90;;;;;;4844674;29;20038;-78
2024/04/06 11:59:27;;;;;;;34.15;31.80;;;22.40;99.90;;;;;;4844562;29;20033;-78
2024/04/06 12:01:54;;;;;;;33.60;31.25;;;22.70;99.90;;;;;;4854347;29;20034;-79
2024/04/06 12:04:24;;;;;;;33.80;31.30;;;22.60;99.90;;;;;;4863584;29;20507;-79
2024/04/06 12:06:52;;;;;;;34.90;32.28;;;22.60;99.90;;;;;;4863548;29;20395;-78
2024/04/06 12:09:21;;;;;;;34.10;31.48;;;22.60;99.90;;;;;;4863664;29;20056;-78
2024/04/06 12:11:47;;;;;;;33.78;31.48;;;22.70;99.90;;;;;;4863585;29;20034;-78
2024/04/06 12:14:14;;;;;;;34.22;31.83;;;22.70;99.90;;;;;;4863552;29;20029;-78
2024/04/06 12:16:41;;;;;;;34.33;32.00;;;22.70;99.90;;;;;;4862223;29;20094;-78
2024/04/06 12:19:07;;;;;;;34.28;31.85;;;22.70;99.90;;;;;;4847360;29;20510;-78
2024/04/06 12:21:34;;;;;;;34.50;32.05;;;22.60;99.90;;;;;;4863187;29;20110;-78
2024/04/06 12:24:00;;;;;;;33.92;31.40;;;22.80;99.90;;;;;;4863347;29;20025;-78
2024/04/06 12:26:27;;;;;;;33.72;31.52;;;22.90;99.90;;;;;;4863326;29;20038;-77
2024/04/06 12:28:53;;;;;;;34.05;31.85;;;23.00;99.90;;;;;;4863190;29;20057;-78